Time;durP1;ratioP1;P1;durP2;ratioP2;P2;SDS_P1;SDS_P2;PMS_P1;PMS_P2;Temp;Humidity;BMP_temperature;BMP_pressure;BME280_temperature;BME280_humidity;BME280_pressure;Samples;Min_cycle;Max_cycle;Signal;HPM_P1;HPM_P2
2024/03/20 00:02:08;;;;;;;1999.90;999.90;;;;;;;;;;5076806;28;20143;-86
2024/03/20 00:04:34;;;;;;;1999.90;999.90;;;;;;;;;;5075642;28;20052;-84
2024/03/20 00:07:02;;;;;;;1999.90;999.90;;;;;;;;;;5079764;28;20074;-84
2024/03/20 00:09:28;;;;;;;1999.90;999.90;;;;;;;;;;5078488;28;20051;-84
2024/03/20 00:11:56;;;;;;;1999.90;999.90;;;;;;;;;;5077805;28;20040;-84
2024/03/20 00:14:22;;;;;;;1999.90;999.90;;;;;;;;;;5078864;28;20052;-85
2024/03/20 00:16:49;;;;;;;1999.90;999.90;;;;;;;;;;5078462;28;20053;-84
2024/03/20 00:19:15;;;;;;;1999.90;999.90;;;;;;;;;;5080251;28;20063;-84
2024/03/20 00:21:42;;;;;;;1999.90;999.90;;;;;;;;;;5076297;28;20047;-84
2024/03/20 00:24:10;;;;;;;1999.90;999.90;;;;;;;;;;5079246;28;20048;-85
2024/03/20 00:26:36;;;;;;;1999.90;999.90;;;;;;;;;;5078114;28;20056;-84
2024/03/20 00:29:03;;;;;;;1999.90;999.90;;;;;;;;;;5079013;28;20044;-84
2024/03/20 00:31:29;;;;;;;1999.90;999.90;;;;;;;;;;5080088;28;20068;-84
2024/03/20 00:33:56;;;;;;;1999.90;999.90;;;;;;;;;;5082977;28;20044;-86
2024/03/20 00:36:22;;;;;;;1999.90;999.90;;;;;;;;;;5081538;28;20130;-85
2024/03/20 00:38:48;;;;;;;1999.90;999.90;;;;;;;;;;5081960;28;20052;-84
2024/03/20 00:41:16;;;;;;;1999.90;999.90;;;;;;;;;;5078677;28;20056;-83
2024/03/20 00:43:43;;;;;;;1999.90;999.90;;;;;;;;;;5081312;28;20059;-84
2024/03/20 00:46:08;;;;;;;1999.90;999.90;;;;;;;;;;5081842;28;20053;-84
2024/03/20 00:48:35;;;;;;;1999.90;999.90;;;;;;;;;;5077196;28;20055;-84
2024/03/20 00:51:01;;;;;;;1999.90;999.90;;;;;;;;;;5081375;28;20484;-84
2024/03/20 00:53:28;;;;;;;1999.90;999.90;;;;;;;;;;5081169;28;20058;-85
2024/03/20 00:55:54;;;;;;;1999.90;999.90;;;;;;;;;;5079863;28;20040;-83
2024/03/20 00:58:22;;;;;;;1999.90;999.90;;;;;;;;;;5081764;28;20048;-83
2024/03/20 01:00:49;;;;;;;1999.90;999.90;;;;;;;;;;5077276;28;20489;-82
2024/03/20 01:03:16;;;;;;;1999.90;999.90;;;;;;;;;;5076635;28;20040;-83
2024/03/20 01:05:42;;;;;;;1999.90;999.90;;;;;;;;;;5083030;28;20075;-84
2024/03/20 01:08:09;;;;;;;1999.90;999.90;;;;;;;;;;5082683;28;20058;-86
2024/03/20 01:10:35;;;;;;;1999.90;999.90;;;;;;;;;;5079180;28;20073;-83
2024/03/20 01:13:01;;;;;;;1999.90;999.90;;;;;;;;;;5078125;28;20052;-85
2024/03/20 01:15:29;;;;;;;1999.90;999.90;;;;;;;;;;5081586;28;20036;-84
2024/03/20 01:17:56;;;;;;;1999.90;999.90;;;;;;;;;;5074715;28;20040;-83
2024/03/20 01:20:22;;;;;;;1999.90;999.90;;;;;;;;;;5075619;28;20412;-83
2024/03/20 01:22:49;;;;;;;1999.90;999.90;;;;;;;;;;5075269;28;20037;-83
2024/03/20 01:25:15;;;;;;;1999.90;999.90;;;;;;;;;;5081836;28;20059;-84
2024/03/20 01:27:42;;;;;;;1999.90;999.90;;;;;;;;;;5079937;28;20135;-83
2024/03/20 01:30:09;;;;;;;1999.90;999.90;;;;;;;;;;5081205;28;20158;-84
2024/03/20 01:32:37;;;;;;;1999.90;999.90;;;;;;;;;;5076846;28;20052;-84
2024/03/20 01:35:04;;;;;;;1999.90;999.90;;;;;;;;;;5078101;28;20052;-83
2024/03/20 01:37:31;;;;;;;1999.90;999.90;;;;;;;;;;5081270;28;20136;-83
2024/03/20 01:39:57;;;;;;;1999.90;999.90;;;;;;;;;;5077378;28;20058;-84
2024/03/20 01:42:24;;;;;;;1999.90;999.90;;;;;;;;;;5079731;28;20055;-83
2024/03/20 01:44:50;;;;;;;1999.90;999.90;;;;;;;;;;5080105;28;20135;-84
2024/03/20 01:47:17;;;;;;;1999.90;999.90;;;;;;;;;;5078220;28;20555;-84
2024/03/20 01:49:45;;;;;;;1999.90;999.90;;;;;;;;;;5076532;28;20044;-84
2024/03/20 01:52:12;;;;;;;1999.90;999.90;;;;;;;;;;5079264;28;20063;-85
2024/03/20 01:54:39;;;;;;;1999.90;999.90;;;;;;;;;;5077063;28;20045;-84
2024/03/20 01:57:09;;;;;;;1999.90;999.90;;;;;;;;;;5082130;28;20044;-84
2024/03/20 01:59:35;;;;;;;1999.90;999.90;;;;;;;;;;5076677;28;20040;-83
2024/03/20 02:02:02;;;;;;;1999.90;999.90;;;;;;;;;;5078813;28;20621;-85
2024/03/20 02:04:27;;;;;;;1999.90;999.90;;;;;;;;;;5077094;28;20044;-86
2024/03/20 02:06:55;;;;;;;1999.90;999.90;;;;;;;;;;5081819;28;20047;-84
2024/03/20 02:09:21;;;;;;;1999.90;999.90;;;;;;;;;;5079855;28;20509;-85
2024/03/20 02:11:48;;;;;;;1999.90;999.90;;;;;;;;;;5075698;28;20063;-84
2024/03/20 02:14:14;;;;;;;1999.90;999.90;;;;;;;;;;5075203;28;20054;-83
2024/03/20 02:16:41;;;;;;;1999.90;999.90;;;;;;;;;;5082820;28;20044;-86
2024/03/20 02:19:07;;;;;;;1999.90;999.90;;;;;;;;;;5077857;28;20049;-83
2024/03/20 02:21:35;;;;;;;1999.90;999.90;;;;;;;;;;5081468;28;20055;-85
2024/03/20 02:24:05;;;;;;;1999.90;999.90;;;;;;;;;;5077410;28;20052;-84
2024/03/20 02:26:32;;;;;;;1999.90;999.90;;;;;;;;;;5079021;28;20044;-85
2024/03/20 02:28:58;;;;;;;1999.90;999.90;;;;;;;;;;5076531;28;20049;-82
2024/03/20 02:31:25;;;;;;;1999.90;999.90;;;;;;;;;;5074824;28;20041;-83
2024/03/20 02:33:52;;;;;;;1999.90;999.90;;;;;;;;;;5078731;28;20492;-83
2024/03/20 02:36:19;;;;;;;1999.90;999.90;;;;;;;;;;5076459;28;20097;-83
2024/03/20 02:38:46;;;;;;;1999.90;999.90;;;;;;;;;;5077966;28;20051;-83
2024/03/20 02:41:13;;;;;;;1999.90;999.90;;;;;;;;;;5080159;28;20418;-84
2024/03/20 02:43:39;;;;;;;1999.90;999.90;;;;;;;;;;5077408;28;20039;-84
2024/03/20 02:46:06;;;;;;;1999.90;999.90;;;;;;;;;;5078018;28;20044;-82
2024/03/20 02:48:34;;;;;;;1999.90;999.90;;;;;;;;;;5076569;28;20412;-83
2024/03/20 02:51:00;;;;;;;1999.90;999.90;;;;;;;;;;5079531;28;20087;-83
2024/03/20 02:53:27;;;;;;;1999.90;999.90;;;;;;;;;;5076242;28;20048;-84
2024/03/20 02:55:55;;;;;;;1999.90;999.90;;;;;;;;;;5080737;28;20048;-83
2024/03/20 02:58:22;;;;;;;1999.90;999.90;;;;;;;;;;5074880;28;20048;-83
2024/03/20 03:00:48;;;;;;;1999.90;999.90;;;;;;;;;;5078401;28;20071;-83
2024/03/20 03:03:15;;;;;;;1999.90;999.90;;;;;;;;;;5078967;28;20050;-83
2024/03/20 03:05:41;;;;;;;1999.90;999.90;;;;;;;;;;5076916;28;20052;-84
2024/03/20 03:08:08;;;;;;;1999.90;999.90;;;;;;;;;;5081545;28;20486;-83
2024/03/20 03:10:34;;;;;;;1999.90;999.90;;;;;;;;;;5075110;28;20048;-83
2024/03/20 03:13:02;;;;;;;1999.90;999.90;;;;;;;;;;5075677;28;20078;-83
2024/03/20 03:15:28;;;;;;;1999.90;999.90;;;;;;;;;;5077379;28;20044;-83
2024/03/20 03:17:56;;;;;;;1999.90;999.90;;;;;;;;;;5073160;28;20055;-84
2024/03/20 03:20:23;;;;;;;1999.90;999.90;;;;;;;;;;5079214;28;20084;-82
2024/03/20 03:22:50;;;;;;;1999.90;999.90;;;;;;;;;;5078942;28;20055;-84
2024/03/20 03:25:17;;;;;;;1999.90;999.90;;;;;;;;;;5080721;28;20365;-83
2024/03/20 03:27:43;;;;;;;1999.90;999.90;;;;;;;;;;5080434;28;20369;-83
2024/03/20 03:30:12;;;;;;;1999.90;999.90;;;;;;;;;;5078266;28;20576;-83
2024/03/20 03:32:39;;;;;;;1999.90;999.90;;;;;;;;;;5077592;28;20162;-82
2024/03/20 03:35:07;;;;;;;1999.90;999.90;;;;;;;;;;5076709;28;20044;-83
2024/03/20 03:37:34;;;;;;;1999.90;999.90;;;;;;;;;;5077572;28;20128;-83
2024/03/20 03:40:01;;;;;;;1999.90;999.90;;;;;;;;;;5078197;28;20052;-82
2024/03/20 03:42:27;;;;;;;1999.90;999.90;;;;;;;;;;5074622;28;20139;-84
2024/03/20 03:44:54;;;;;;;1999.90;999.90;;;;;;;;;;5075675;28;20070;-83
2024/03/20 03:47:22;;;;;;;1999.90;999.90;;;;;;;;;;5082125;28;20540;-82
2024/03/20 03:49:49;;;;;;;1999.90;999.90;;;;;;;;;;5082197;28;20397;-84
2024/03/20 03:52:14;;;;;;;1999.90;999.90;;;;;;;;;;5083841;28;20055;-83
2024/03/20 03:54:41;;;;;;;1999.90;999.90;;;;;;;;;;5089423;28;20064;-82
2024/03/20 03:57:07;;;;;;;1999.90;999.90;;;;;;;;;;5090853;28;20074;-84
2024/03/20 03:59:34;;;;;;;1999.90;999.90;;;;;;;;;;5083156;28;20349;-84
2024/03/20 04:02:00;;;;;;;1999.90;999.90;;;;;;;;;;5081280;28;20180;-83
2024/03/20 04:04:28;;;;;;;1999.90;999.90;;;;;;;;;;5075327;28;20048;-83
2024/03/20 04:06:55;;;;;;;1999.90;999.90;;;;;;;;;;5080993;28;20075;-83
2024/03/20 04:09:21;;;;;;;1999.90;999.90;;;;;;;;;;5081008;28;20052;-84
2024/03/20 04:11:48;;;;;;;1999.90;999.90;;;;;;;;;;5078560;28;20485;-83
2024/03/20 04:14:15;;;;;;;1999.90;999.90;;;;;;;;;;5080399;28;20375;-82
2024/03/20 04:16:42;;;;;;;1999.90;999.90;;;;;;;;;;5079420;28;20430;-82
2024/03/20 04:19:09;;;;;;;1999.90;999.90;;;;;;;;;;5077920;28;20048;-83
2024/03/20 04:21:37;;;;;;;1999.90;999.90;;;;;;;;;;5081707;28;20044;-83
2024/03/20 04:24:04;;;;;;;1999.90;999.90;;;;;;;;;;5079193;28;20052;-83
2024/03/20 04:26:30;;;;;;;1999.90;999.90;;;;;;;;;;5080450;28;20052;-83
2024/03/20 04:28:57;;;;;;;1999.90;999.90;;;;;;;;;;5082368;28;20044;-83
2024/03/20 04:31:23;;;;;;;1999.90;999.90;;;;;;;;;;5081083;28;20050;-83
2024/03/20 04:33:50;;;;;;;1999.90;999.90;;;;;;;;;;5078236;28;20472;-84
2024/03/20 04:36:17;;;;;;;1999.90;999.90;;;;;;;;;;5077274;28;20044;-83
2024/03/20 04:38:45;;;;;;;1999.90;999.90;;;;;;;;;;5078567;28;20055;-83
2024/03/20 04:41:12;;;;;;;1999.90;999.90;;;;;;;;;;5077383;28;20066;-82
2024/03/20 04:43:39;;;;;;;1999.90;999.90;;;;;;;;;;5081461;28;20052;-85
2024/03/20 04:46:06;;;;;;;1999.90;999.90;;;;;;;;;;5077267;28;20048;-82
2024/03/20 04:48:32;;;;;;;1999.90;999.90;;;;;;;;;;5080197;28;20052;-82
2024/03/20 04:50:59;;;;;;;1999.90;999.90;;;;;;;;;;5082299;28;20040;-83
2024/03/20 04:53:25;;;;;;;1999.90;999.90;;;;;;;;;;5079669;28;20059;-83
2024/03/20 04:55:53;;;;;;;1999.90;999.90;;;;;;;;;;5079737;28;20127;-82
2024/03/20 04:58:19;;;;;;;1999.90;999.90;;;;;;;;;;5078534;28;20052;-82
2024/03/20 05:00:46;;;;;;;1999.90;999.90;;;;;;;;;;5078575;28;20044;-82
2024/03/20 05:03:12;;;;;;;1999.90;999.90;;;;;;;;;;5077536;28;20442;-82
2024/03/20 05:05:39;;;;;;;1999.90;999.90;;;;;;;;;;5081678;28;20058;-82
2024/03/20 05:08:05;;;;;;;1999.90;999.90;;;;;;;;;;5076945;28;20515;-82
2024/03/20 05:10:32;;;;;;;1999.90;999.90;;;;;;;;;;5080274;28;20129;-83
2024/03/20 05:13:00;;;;;;;1999.90;999.90;;;;;;;;;;5080469;28;20040;-83
2024/03/20 05:15:26;;;;;;;1999.90;999.90;;;;;;;;;;5079723;28;20051;-83
2024/03/20 05:17:53;;;;;;;1999.90;999.90;;;;;;;;;;5077728;28;20044;-83
2024/03/20 05:20:20;;;;;;;1999.90;999.90;;;;;;;;;;5077832;28;20049;-82
2024/03/20 05:22:46;;;;;;;1999.90;999.90;;;;;;;;;;5079073;28;20142;-83
2024/03/20 05:25:12;;;;;;;1999.90;999.90;;;;;;;;;;5074419;28;20076;-83
2024/03/20 05:27:38;;;;;;;1999.90;999.90;;;;;;;;;;5081340;28;20047;-82
2024/03/20 05:30:08;;;;;;;1999.90;999.90;;;;;;;;;;5084180;28;20058;-83
2024/03/20 05:32:33;;;;;;;1999.90;999.90;;;;;;;;;;5079796;28;20040;-83
2024/03/20 05:35:00;;;;;;;1999.90;999.90;;;;;;;;;;5084197;28;20052;-83
2024/03/20 05:37:25;;;;;;;1999.90;999.90;;;;;;;;;;5077226;28;20044;-82
2024/03/20 05:39:52;;;;;;;1999.90;999.90;;;;;;;;;;5081227;28;20046;-84
2024/03/20 05:42:18;;;;;;;1999.90;999.90;;;;;;;;;;5076296;28;20049;-83
2024/03/20 05:44:44;;;;;;;1999.90;999.90;;;;;;;;;;5079084;28;20126;-82
2024/03/20 05:47:11;;;;;;;1999.90;999.90;;;;;;;;;;5077294;28;20040;-83
2024/03/20 05:49:43;;;;;;;1999.90;999.90;;;;;;;;;;5076831;28;20045;-81
2024/03/20 05:52:09;;;;;;;1999.90;999.90;;;;;;;;;;5079323;28;20054;-83
2024/03/20 05:54:35;;;;;;;1999.90;999.90;;;;;;;;;;5080587;28;20404;-81
2024/03/20 05:57:01;;;;;;;1999.90;999.90;;;;;;;;;;5077345;28;20044;-83
2024/03/20 05:59:27;;;;;;;1999.90;999.90;;;;;;;;;;5077871;28;20055;-84
2024/03/20 06:01:53;;;;;;;1999.90;999.90;;;;;;;;;;5078567;28;20048;-81
2024/03/20 06:04:21;;;;;;;1999.90;999.90;;;;;;;;;;5075764;28;20045;-83
2024/03/20 06:06:46;;;;;;;1999.90;999.90;;;;;;;;;;5075231;28;20044;-82
2024/03/20 06:09:13;;;;;;;1999.90;999.90;;;;;;;;;;5080586;28;20052;-81
2024/03/20 06:11:39;;;;;;;1999.90;999.90;;;;;;;;;;5075671;28;20135;-81
2024/03/20 06:14:05;;;;;;;1999.90;999.90;;;;;;;;;;5080511;28;20139;-82
2024/03/20 06:16:32;;;;;;;1999.90;999.90;;;;;;;;;;5079850;28;20413;-84
2024/03/20 06:18:58;;;;;;;1999.90;999.90;;;;;;;;;;5078155;28;20041;-84
2024/03/20 06:21:25;;;;;;;1999.90;999.90;;;;;;;;;;5080859;28;20052;-81
2024/03/20 06:23:52;;;;;;;1999.90;999.90;;;;;;;;;;5079355;28;20132;-85
2024/03/20 06:26:17;;;;;;;1999.90;999.90;;;;;;;;;;5079443;28;20431;-81
2024/03/20 06:28:44;;;;;;;1999.90;999.90;;;;;;;;;;5078069;28;20047;-83
2024/03/20 06:31:09;;;;;;;1999.90;999.90;;;;;;;;;;5079645;28;20052;-82
2024/03/20 06:33:36;;;;;;;1999.90;999.90;;;;;;;;;;5081826;28;20052;-81
2024/03/20 06:36:02;;;;;;;1999.90;999.90;;;;;;;;;;5079969;28;20362;-82
2024/03/20 06:38:30;;;;;;;1999.90;999.90;;;;;;;;;;5079466;28;20048;-83
2024/03/20 06:40:56;;;;;;;1999.90;999.90;;;;;;;;;;5080342;28;20051;-82
2024/03/20 06:43:22;;;;;;;1999.90;999.90;;;;;;;;;;5073141;28;20049;-81
2024/03/20 06:45:49;;;;;;;1999.90;999.90;;;;;;;;;;5073881;28;20491;-81
2024/03/20 06:48:15;;;;;;;1999.90;999.90;;;;;;;;;;5073716;28;20044;-82
2024/03/20 06:50:41;;;;;;;1999.90;999.90;;;;;;;;;;5091730;28;20060;-81
2024/03/20 06:53:09;;;;;;;1999.90;999.90;;;;;;;;;;5092708;28;20093;-83
2024/03/20 06:55:36;;;;;;;1999.90;999.90;;;;;;;;;;5093755;28;20055;-81
2024/03/20 06:58:03;;;;;;;1999.90;999.90;;;;;;;;;;5092905;28;20109;-81
2024/03/20 07:00:28;;;;;;;1999.90;999.90;;;;;;;;;;5093420;28;20040;-81
2024/03/20 07:02:56;;;;;;;1999.90;999.90;;;;;;;;;;5086779;28;20052;-84
2024/03/20 07:05:22;;;;;;;1999.90;999.90;;;;;;;;;;5076164;28;20040;-83
2024/03/20 07:07:48;;;;;;;1999.90;999.90;;;;;;;;;;5080731;28;20045;-83
2024/03/20 07:10:14;;;;;;;1999.90;999.90;;;;;;;;;;5077495;28;20053;-84
2024/03/20 07:12:42;;;;;;;1999.90;999.90;;;;;;;;;;5078433;28;20055;-83
2024/03/20 07:15:08;;;;;;;1999.90;999.90;;;;;;;;;;5077814;28;20055;-83
2024/03/20 07:17:36;;;;;;;1999.90;999.90;;;;;;;;;;5078067;28;20071;-83
2024/03/20 07:20:08;;;;;;;1999.90;999.90;;;;;;;;;;5081835;28;20048;-84
2024/03/20 07:22:35;;;;;;;1999.90;999.90;;;;;;;;;;5083953;28;20105;-84
2024/03/20 07:25:01;;;;;;;1999.90;999.90;;;;;;;;;;5086404;28;20493;-84
2024/03/20 07:27:28;;;;;;;1999.90;999.90;;;;;;;;;;5088733;28;20044;-88
2024/03/20 07:29:55;;;;;;;1999.90;999.90;;;;;;;;;;5092407;28;20048;-84
2024/03/20 07:32:21;;;;;;;1999.90;999.90;;;;;;;;;;5086308;28;20040;-85
2024/03/20 07:34:47;;;;;;;1999.90;999.90;;;;;;;;;;5089596;28;20055;-86
2024/03/20 07:37:13;;;;;;;1999.90;999.90;;;;;;;;;;5080511;28;20327;-84
2024/03/20 07:39:40;;;;;;;1999.90;999.90;;;;;;;;;;5084039;28;20049;-86
2024/03/20 07:42:08;;;;;;;1999.90;999.90;;;;;;;;;;5082181;28;20084;-84
2024/03/20 07:44:34;;;;;;;1999.90;999.90;;;;;;;;;;5085086;28;20399;-84
2024/03/20 07:47:01;;;;;;;1999.90;999.90;;;;;;;;;;5083134;28;20126;-85
2024/03/20 07:49:27;;;;;;;1999.90;999.90;;;;;;;;;;5083215;28;20040;-87
2024/03/20 07:51:56;;;;;;;1999.90;999.90;;;;;;;;;;5088675;28;20059;-84
2024/03/20 07:54:23;;;;;;;1999.90;999.90;;;;;;;;;;5087172;28;20059;-84
2024/03/20 07:56:51;;;;;;;1999.90;999.90;;;;;;;;;;5084447;28;20060;-85
2024/03/20 07:59:17;;;;;;;1999.90;999.90;;;;;;;;;;5080820;28;20048;-84
2024/03/20 08:01:43;;;;;;;1999.90;999.90;;;;;;;;;;5083878;28;20036;-84
2024/03/20 08:04:11;;;;;;;1999.90;999.90;;;;;;;;;;5084956;28;20055;-84
2024/03/20 08:06:37;;;;;;;1999.90;999.90;;;;;;;;;;5085455;28;20051;-86
2024/03/20 08:09:04;;;;;;;1999.90;999.90;;;;;;;;;;5083224;28;20412;-83
2024/03/20 08:11:30;;;;;;;1999.90;999.90;;;;;;;;;;5085791;28;20477;-85
2024/03/20 08:13:56;;;;;;;1999.90;999.90;;;;;;;;;;5081742;28;20056;-86
2024/03/20 08:16:22;;;;;;;1999.90;999.90;;;;;;;;;;5081209;28;20059;-84
2024/03/20 08:18:48;;;;;;;1999.90;999.90;;;;;;;;;;5079423;28;20052;-84
2024/03/20 08:21:16;;;;;;;1999.90;999.90;;;;;;;;;;5083261;28;20102;-84
2024/03/20 08:23:42;;;;;;;1999.90;999.90;;;;;;;;;;5081049;28;20049;-85
2024/03/20 08:26:08;;;;;;;1999.90;999.90;;;;;;;;;;5080018;28;20055;-85
2024/03/20 08:28:34;;;;;;;1999.90;999.90;;;;;;;;;;5082964;28;20052;-85
2024/03/20 08:31:00;;;;;;;1999.90;999.90;;;;;;;;;;5084099;28;20123;-85
2024/03/20 08:33:26;;;;;;;1999.90;999.90;;;;;;;;;;5077167;28;20044;-85
2024/03/20 08:35:57;;;;;;;1999.90;999.90;;;;;;;;;;5082388;28;20071;-85
2024/03/20 08:38:24;;;;;;;1999.90;999.90;;;;;;;;;;5082541;28;20139;-85
2024/03/20 08:40:51;;;;;;;1999.90;999.90;;;;;;;;;;5079910;28;20044;-85
2024/03/20 08:43:18;;;;;;;1999.90;999.90;;;;;;;;;;5088000;28;20574;-85
2024/03/20 08:45:45;;;;;;;1999.90;999.90;;;;;;;;;;5079177;28;20126;-86
2024/03/20 08:48:10;;;;;;;1999.90;999.90;;;;;;;;;;5083752;28;20079;-87
2024/03/20 08:50:40;;;;;;;1999.90;999.90;;;;;;;;;;5078957;28;20477;-85
2024/03/20 08:53:07;;;;;;;1999.90;999.90;;;;;;;;;;5080882;28;20037;-85
2024/03/20 08:55:35;;;;;;;1999.90;999.90;;;;;;;;;;5082006;28;20097;-85
2024/03/20 08:58:01;;;;;;;1999.90;999.90;;;;;;;;;;5080112;28;20412;-84
2024/03/20 09:00:27;;;;;;;1999.90;999.90;;;;;;;;;;5089444;28;20044;-85
2024/03/20 09:02:53;;;;;;;1999.90;999.90;;;;;;;;;;5080015;28;20067;-85
2024/03/20 09:05:20;;;;;;;1999.90;999.90;;;;;;;;;;5080730;28;20464;-85
2024/03/20 09:07:46;;;;;;;1999.90;999.90;;;;;;;;;;5079736;28;20048;-86
2024/03/20 09:10:13;;;;;;;1999.90;999.90;;;;;;;;;;5081632;28;20407;-86
2024/03/20 09:12:40;;;;;;;1999.90;999.90;;;;;;;;;;5086899;28;20048;-84
2024/03/20 09:15:08;;;;;;;1999.90;999.90;;;;;;;;;;5082121;28;20462;-84
2024/03/20 09:17:34;;;;;;;1999.90;999.90;;;;;;;;;;5073502;28;20097;-84
2024/03/20 09:20:01;;;;;;;1999.90;999.90;;;;;;;;;;5079046;28;20112;-84
2024/03/20 09:22:26;;;;;;;1999.90;999.90;;;;;;;;;;5081012;28;20631;-85
2024/03/20 09:24:53;;;;;;;1999.90;999.90;;;;;;;;;;5077139;28;20114;-84
2024/03/20 09:27:19;;;;;;;1999.90;999.90;;;;;;;;;;5082051;28;20071;-84
2024/03/20 09:29:46;;;;;;;1999.90;999.90;;;;;;;;;;5086270;28;20643;-83
2024/03/20 09:32:12;;;;;;;1999.90;999.90;;;;;;;;;;5078293;28;20048;-85
2024/03/20 09:34:39;;;;;;;1999.90;999.90;;;;;;;;;;5079020;28;20434;-84
2024/03/20 09:37:05;;;;;;;1999.90;999.90;;;;;;;;;;5079688;28;20048;-85
2024/03/20 09:39:33;;;;;;;1999.90;999.90;;;;;;;;;;5077778;28;20055;-85
2024/03/20 09:41:59;;;;;;;1999.90;999.90;;;;;;;;;;5078666;28;20058;-85
2024/03/20 09:44:26;;;;;;;1999.90;999.90;;;;;;;;;;5091616;28;20049;-85
2024/03/20 09:46:54;;;;;;;1999.90;999.90;;;;;;;;;;5085836;28;20048;-84
2024/03/20 09:49:21;;;;;;;1999.90;999.90;;;;;;;;;;5094516;28;20044;-84
2024/03/20 09:51:47;;;;;;;1999.90;999.90;;;;;;;;;;5087345;28;20044;-83
2024/03/20 09:54:14;;;;;;;1999.90;999.90;;;;;;;;;;5082751;28;20048;-84
2024/03/20 09:56:42;;;;;;;1999.90;999.90;;;;;;;;;;5085073;28;20040;-84
2024/03/20 09:59:09;;;;;;;1999.90;999.90;;;;;;;;;;5083983;28;20139;-82
2024/03/20 10:01:35;;;;;;;1999.90;999.90;;;;;;;;;;5096465;28;20123;-83
2024/03/20 10:04:08;;;;;;;1999.90;999.90;;;;;;;;;;5087272;28;20140;-84
2024/03/20 10:06:35;;;;;;;1999.90;999.90;;;;;;;;;;5084602;28;20482;-83
2024/03/20 10:09:03;;;;;;;1999.90;999.90;;;;;;;;;;5089219;28;20045;-85
2024/03/20 10:11:30;;;;;;;1999.90;999.90;;;;;;;;;;5084503;28;20040;-84
2024/03/20 10:13:57;;;;;;;1999.90;999.90;;;;;;;;;;5085910;28;20483;-83
2024/03/20 10:16:23;;;;;;;1999.90;999.90;;;;;;;;;;5082637;28;20060;-83
2024/03/20 10:18:50;;;;;;;1999.90;999.90;;;;;;;;;;5083087;28;20040;-84
2024/03/20 10:21:17;;;;;;;1999.90;999.90;;;;;;;;;;5083431;28;20485;-85
2024/03/20 10:23:45;;;;;;;1999.90;999.90;;;;;;;;;;5078196;28;20462;-86
2024/03/20 10:26:12;;;;;;;1999.90;999.90;;;;;;;;;;5078027;28;20443;-85
2024/03/20 10:28:39;;;;;;;1999.90;999.90;;;;;;;;;;5077552;28;20044;-85
2024/03/20 10:31:06;;;;;;;1999.90;999.90;;;;;;;;;;5076426;28;20134;-86
2024/03/20 10:33:34;;;;;;;1999.90;999.90;;;;;;;;;;5076332;28;20048;-85
2024/03/20 10:36:01;;;;;;;1999.90;999.90;;;;;;;;;;5075202;28;20053;-85
2024/03/20 10:38:29;;;;;;;1999.90;999.90;;;;;;;;;;5081517;28;20056;-84
2024/03/20 10:40:56;;;;;;;1999.90;999.90;;;;;;;;;;5097814;28;20044;-86
2024/03/20 10:43:24;;;;;;;1999.90;999.90;;;;;;;;;;5097231;28;20507;-84
2024/03/20 10:45:53;;;;;;;1999.90;999.90;;;;;;;;;;5094754;28;20040;-84
2024/03/20 10:48:20;;;;;;;1999.90;999.90;;;;;;;;;;5094219;28;20052;-85
2024/03/20 10:50:47;;;;;;;1999.90;999.90;;;;;;;;;;5080667;28;20048;-86
2024/03/20 10:53:14;;;;;;;1999.90;999.90;;;;;;;;;;5076398;28;20546;-85
2024/03/20 10:55:42;;;;;;;1999.90;999.90;;;;;;;;;;5076607;28;20047;-88
2024/03/20 10:58:10;;;;;;;1999.90;999.90;;;;;;;;;;5079951;28;20116;-85
2024/03/20 11:00:39;;;;;;;1999.90;999.90;;;;;;;;;;5074056;28;20567;-85
2024/03/20 11:03:40;;;;;;;1999.90;999.90;;;;;;;;;;5081693;28;20048;-86
2024/03/20 11:06:41;;;;;;;1999.90;999.90;;;;;;;;;;5081361;28;20055;-86
2024/03/20 11:09:22;;;;;;;1999.90;999.90;;;;;;;;;;5079438;28;20059;-86
2024/03/20 11:11:52;;;;;;;1999.90;999.90;;;;;;;;;;5077713;28;20143;-85
2024/03/20 11:14:28;;;;;;;1999.90;999.90;;;;;;;;;;5075888;28;20493;-86
2024/03/20 11:16:59;;;;;;;1999.90;999.90;;;;;;;;;;5076348;28;20040;-85
2024/03/20 11:19:27;;;;;;;1999.90;999.90;;;;;;;;;;5075599;28;20489;-85
2024/03/20 11:21:55;;;;;;;1999.90;999.90;;;;;;;;;;5072440;28;20059;-87
2024/03/20 11:24:21;;;;;;;1999.90;999.90;;;;;;;;;;5076512;28;20063;-86
2024/03/20 11:26:47;;;;;;;1999.90;999.90;;;;;;;;;;5073173;28;20048;-86
2024/03/20 11:29:15;;;;;;;1999.90;999.90;;;;;;;;;;5075774;28;20048;-86
2024/03/20 11:31:41;;;;;;;1999.90;999.90;;;;;;;;;;5079331;28;20040;-86
2024/03/20 11:34:08;;;;;;;1999.90;999.90;;;;;;;;;;5078173;28;20349;-86
2024/03/20 11:36:33;;;;;;;1999.90;999.90;;;;;;;;;;5078417;28;20044;-84
2024/03/20 11:39:05;;;;;;;1999.90;999.90;;;;;;;;;;5101572;28;20435;-84
2024/03/20 11:41:31;;;;;;;1999.90;999.90;;;;;;;;;;5107711;28;20063;-84
2024/03/20 11:43:57;;;;;;;1999.90;999.90;;;;;;;;;;5099064;28;20047;-85
2024/03/20 11:46:24;;;;;;;1999.90;999.90;;;;;;;;;;5081763;28;20311;-86
2024/03/20 11:48:52;;;;;;;1999.90;999.90;;;;;;;;;;5078103;28;20134;-85
2024/03/20 11:51:22;;;;;;;1999.90;999.90;;;;;;;;;;5077769;28;20481;-86
2024/03/20 11:53:49;;;;;;;1999.90;999.90;;;;;;;;;;5077434;28;20493;-86
2024/03/20 11:56:15;;;;;;;1999.90;999.90;;;;;;;;;;5080028;28;20051;-86
2024/03/20 11:58:41;;;;;;;1999.90;999.90;;;;;;;;;;5075278;28;20044;-87
2024/03/20 12:01:08;;;;;;;1999.90;999.90;;;;;;;;;;5078865;28;20522;-86
2024/03/20 12:03:37;;;;;;;1999.90;999.90;;;;;;;;;;5075369;28;20136;-86
2024/03/20 12:06:10;;;;;;;1999.90;999.90;;;;;;;;;;5076941;28;20102;-86
2024/03/20 12:08:37;;;;;;;1999.90;999.90;;;;;;;;;;5079144;28;20148;-86
2024/03/20 12:11:17;;;;;;;1999.90;999.90;;;;;;;;;;5079284;28;20048;-86
2024/03/20 12:13:44;;;;;;;1999.90;999.90;;;;;;;;;;5080828;28;20051;-85
2024/03/20 12:16:10;;;;;;;1999.90;999.90;;;;;;;;;;5082147;28;20047;-86
2024/03/20 12:18:38;;;;;;;1999.90;999.90;;;;;;;;;;5082134;28;20044;-86
2024/03/20 12:21:04;;;;;;;1999.90;999.90;;;;;;;;;;5080535;28;20049;-85
2024/03/20 12:23:31;;;;;;;1999.90;999.90;;;;;;;;;;5081872;28;20044;-86
2024/03/20 12:25:59;;;;;;;1999.90;999.90;;;;;;;;;;5079911;28;20067;-86
2024/03/20 12:28:25;;;;;;;1999.90;999.90;;;;;;;;;;5083800;28;20048;-85
2024/03/20 12:30:53;;;;;;;1999.90;999.90;;;;;;;;;;5104877;28;20073;-86
2024/03/20 12:33:20;;;;;;;1999.90;999.90;;;;;;;;;;5100490;28;20127;-86
2024/03/20 12:35:49;;;;;;;1999.90;999.90;;;;;;;;;;5085052;28;20063;-85
2024/03/20 12:38:14;;;;;;;1999.90;999.90;;;;;;;;;;5098672;28;20055;-85
2024/03/20 12:40:42;;;;;;;1999.90;999.90;;;;;;;;;;5102638;28;20048;-87
2024/03/20 12:43:10;;;;;;;1999.90;999.90;;;;;;;;;;5102144;28;20048;-85
2024/03/20 12:45:36;;;;;;;1999.90;999.90;;;;;;;;;;5107621;28;20048;-86
2024/03/20 12:48:04;;;;;;;1999.90;999.90;;;;;;;;;;5108072;28;20050;-86
2024/03/20 12:50:30;;;;;;;1999.90;999.90;;;;;;;;;;5091658;28;20087;-86
2024/03/20 12:52:57;;;;;;;1999.90;999.90;;;;;;;;;;5091838;28;20131;-85
2024/03/20 12:55:24;;;;;;;1999.90;999.90;;;;;;;;;;5069877;28;20056;-84
2024/03/20 12:57:50;;;;;;;1999.90;999.90;;;;;;;;;;5058138;28;20043;-83
2024/03/20 13:00:17;;;;;;;1999.90;999.90;;;;;;;;;;5061354;28;20055;-86
2024/03/20 13:02:43;;;;;;;1999.90;999.90;;;;;;;;;;5062973;28;20230;-86
2024/03/20 13:05:13;;;;;;;1999.90;999.90;;;;;;;;;;5063206;28;20049;-87
2024/03/20 13:07:38;;;;;;;1999.90;999.90;;;;;;;;;;5061154;28;20488;-87
2024/03/20 13:10:09;;;;;;;1999.90;999.90;;;;;;;;;;5065388;28;20131;-85
2024/03/20 13:12:35;;;;;;;1999.90;999.90;;;;;;;;;;5073454;28;20291;-86
2024/03/20 13:15:05;;;;;;;1999.90;999.90;;;;;;;;;;5058273;28;20513;-86
2024/03/20 13:17:33;;;;;;;1999.90;999.90;;;;;;;;;;5061224;28;20490;-86
2024/03/20 13:20:10;;;;;;;1999.90;999.90;;;;;;;;;;5058106;28;20155;-86
2024/03/20 13:22:37;;;;;;;1999.90;999.90;;;;;;;;;;5060425;28;20084;-86
2024/03/20 13:25:06;;;;;;;1999.90;999.90;;;;;;;;;;5063858;28;20071;-86
2024/03/20 13:27:32;;;;;;;1999.90;999.90;;;;;;;;;;5057596;28;20063;-87
2024/03/20 13:30:00;;;;;;;1999.90;999.90;;;;;;;;;;5056472;28;20084;-86
2024/03/20 13:32:33;;;;;;;1999.90;999.90;;;;;;;;;;5062086;28;20094;-87
2024/03/20 13:35:04;;;;;;;1999.90;999.90;;;;;;;;;;5055026;28;20063;-86
2024/03/20 13:37:32;;;;;;;1999.90;999.90;;;;;;;;;;5057542;28;20525;-86
2024/03/20 13:40:16;;;;;;;1999.90;999.90;;;;;;;;;;5060448;28;20044;-86
2024/03/20 13:42:59;;;;;;;1999.90;999.90;;;;;;;;;;5071123;28;20065;-87